Time;durP1;ratioP1;P1;durP2;ratioP2;P2;SDS_P1;SDS_P2;PMS_P1;PMS_P2;Temp;Humidity;BMP_temperature;BMP_pressure;BME280_temperature;BME280_humidity;BME280_pressure;Samples;Min_cycle;Max_cycle;Signal;HPM_P1;HPM_P2
2022/03/06 00:00:00;;;;;;;14.20;8.90;;;2.80;99.90;;;;;;5036957;28;20483;-69
2022/03/06 00:02:28;;;;;;;12.57;9.83;;;2.80;99.90;;;;;;5036792;28;20474;-69
2022/03/06 00:04:54;;;;;;;9.10;7.83;;;2.90;99.90;;;;;;5036781;28;20782;-70
2022/03/06 00:07:22;;;;;;;10.33;9.20;;;2.90;99.90;;;;;;5036906;28;20471;-70
2022/03/06 00:09:49;;;;;;;11.90;8.70;;;2.90;99.90;;;;;;5036859;28;20511;-70
2022/03/06 00:12:16;;;;;;;12.37;9.10;;;2.90;99.90;;;;;;5036635;28;20471;-71
2022/03/06 00:14:42;;;;;;;14.23;10.43;;;2.90;99.90;;;;;;5036449;28;20774;-69
2022/03/06 00:17:09;;;;;;;14.87;9.67;;;2.90;99.90;;;;;;5036836;28;20937;-69
2022/03/06 00:19:36;;;;;;;11.30;9.43;;;2.90;99.90;;;;;;5036574;28;20452;-71
2022/03/06 00:22:03;;;;;;;12.80;9.33;;;2.80;99.90;;;;;;5036460;28;20475;-70
2022/03/06 00:24:31;;;;;;;16.77;10.40;;;2.80;99.90;;;;;;5036427;28;20455;-70
2022/03/06 00:26:58;;;;;;;13.23;9.57;;;2.80;99.90;;;;;;5036720;28;20471;-69
2022/03/06 00:29:25;;;;;;;14.33;10.70;;;2.80;99.90;;;;;;5036370;28;20854;-70
2022/03/06 00:31:52;;;;;;;13.70;9.60;;;2.80;99.90;;;;;;5036566;28;20551;-71
2022/03/06 00:34:19;;;;;;;18.83;10.33;;;2.80;99.90;;;;;;5036516;28;20460;-70
2022/03/06 00:36:45;;;;;;;16.70;10.30;;;2.80;99.90;;;;;;5036355;28;20471;-70
2022/03/06 00:39:12;;;;;;;11.37;9.70;;;2.80;99.90;;;;;;5036893;28;20749;-70
2022/03/06 00:41:40;;;;;;;12.27;9.20;;;2.80;99.90;;;;;;5035866;28;20467;-70
2022/03/06 00:44:07;;;;;;;11.10;9.33;;;2.80;99.90;;;;;;5035992;28;20495;-70
2022/03/06 00:46:34;;;;;;;13.43;10.17;;;2.90;99.90;;;;;;5036204;28;20456;-69
2022/03/06 00:49:01;;;;;;;12.27;10.50;;;2.90;99.90;;;;;;5036391;28;20479;-70
2022/03/06 00:51:28;;;;;;;13.00;9.80;;;2.90;99.90;;;;;;5036057;28;20456;-70
2022/03/06 00:53:55;;;;;;;12.57;9.30;;;2.80;99.90;;;;;;5036109;28;20460;-70
2022/03/06 00:56:22;;;;;;;12.00;10.00;;;2.80;99.90;;;;;;5036124;28;20533;-69
2022/03/06 00:58:50;;;;;;;11.70;9.80;;;2.80;99.90;;;;;;5036151;28;20510;-69
2022/03/06 01:01:16;;;;;;;10.50;9.40;;;2.80;99.90;;;;;;5035524;28;20456;-69
2022/03/06 01:03:43;;;;;;;11.47;9.27;;;2.80;99.90;;;;;;5035832;28;20463;-69
2022/03/06 01:06:10;;;;;;;12.20;9.43;;;2.80;99.90;;;;;;5034827;28;20463;-70
2022/03/06 01:08:36;;;;;;;13.37;10.40;;;2.70;99.90;;;;;;5035490;28;20886;-71
2022/03/06 01:11:03;;;;;;;15.60;10.37;;;2.70;99.90;;;;;;5035704;28;20791;-70
2022/03/06 01:13:30;;;;;;;13.87;9.97;;;2.80;99.90;;;;;;5035541;28;20789;-70
2022/03/06 01:15:58;;;;;;;12.80;10.10;;;2.70;99.90;;;;;;5035384;28;20471;-70
2022/03/06 01:18:25;;;;;;;11.23;10.10;;;2.70;99.90;;;;;;5035949;28;20460;-71
2022/03/06 01:20:52;;;;;;;12.80;10.37;;;2.70;99.90;;;;;;5035154;28;20460;-70
2022/03/06 01:23:20;;;;;;;15.57;10.30;;;2.70;99.90;;;;;;5035381;28;20466;-70
2022/03/06 01:25:47;;;;;;;12.67;10.30;;;2.70;99.90;;;;;;5035402;28;20459;-70
2022/03/06 01:28:13;;;;;;;14.00;10.70;;;2.70;99.90;;;;;;5035378;28;20456;-70
2022/03/06 01:30:40;;;;;;;17.93;12.30;;;2.70;99.90;;;;;;5035164;28;20471;-70
2022/03/06 01:33:08;;;;;;;13.40;10.00;;;2.70;99.90;;;;;;5035507;28;20522;-70
2022/03/06 01:35:35;;;;;;;16.40;11.77;;;2.80;99.90;;;;;;5035226;28;20842;-70
2022/03/06 01:38:04;;;;;;;12.60;11.30;;;2.80;99.90;;;;;;5035243;28;20960;-70
2022/03/06 01:40:31;;;;;;;16.30;10.60;;;2.80;99.90;;;;;;5035059;28;20471;-70
2022/03/06 01:42:57;;;;;;;12.83;8.67;;;2.70;99.90;;;;;;5034471;28;20495;-70
2022/03/06 01:45:24;;;;;;;13.43;10.80;;;2.70;99.90;;;;;;5033986;28;20555;-70
2022/03/06 01:47:53;;;;;;;12.17;9.90;;;2.60;99.90;;;;;;5033976;28;20940;-70
2022/03/06 01:50:25;;;;;;;11.10;9.90;;;2.50;99.90;;;;;;5033750;28;21030;-70
2022/03/06 01:52:54;;;;;;;11.97;10.17;;;2.40;99.90;;;;;;5034029;28;20444;-70
2022/03/06 01:55:24;;;;;;;14.00;10.00;;;2.40;99.90;;;;;;5034192;28;20455;-69
2022/03/06 01:57:52;;;;;;;13.03;10.47;;;2.30;99.90;;;;;;5034233;28;20451;-69
2022/03/06 02:00:22;;;;;;;15.10;10.33;;;2.30;99.90;;;;;;5034142;28;20456;-69
2022/03/06 02:02:49;;;;;;;18.23;10.40;;;2.30;99.90;;;;;;5033942;28;20467;-69
2022/03/06 02:05:16;;;;;;;12.40;9.27;;;2.30;99.90;;;;;;5034375;28;20460;-70
2022/03/06 02:07:44;;;;;;;14.63;9.60;;;2.30;99.90;;;;;;5034119;28;20551;-70
2022/03/06 02:10:14;;;;;;;11.33;9.53;;;2.30;99.90;;;;;;5033996;28;20495;-69
2022/03/06 02:12:41;;;;;;;12.20;9.67;;;2.40;99.90;;;;;;5033786;28;20456;-70
2022/03/06 02:15:10;;;;;;;11.07;9.27;;;2.40;99.90;;;;;;5034006;28;20769;-70
2022/03/06 02:17:38;;;;;;;11.10;8.73;;;2.40;99.90;;;;;;5032613;28;20487;-70
2022/03/06 02:20:07;;;;;;;11.33;8.57;;;2.40;99.90;;;;;;5034140;28;20530;-69
2022/03/06 02:22:37;;;;;;;9.80;8.50;;;2.40;99.90;;;;;;5033868;28;20464;-70
2022/03/06 02:25:06;;;;;;;14.07;9.20;;;2.40;99.90;;;;;;5033401;28;20464;-69
2022/03/06 02:27:33;;;;;;;11.23;8.73;;;2.40;99.90;;;;;;5033739;28;20475;-70
2022/03/06 02:30:00;;;;;;;12.23;8.97;;;2.40;99.90;;;;;;5033794;28;20483;-70
2022/03/06 02:32:26;;;;;;;11.50;8.43;;;2.40;99.90;;;;;;5034101;28;20539;-71
2022/03/06 02:34:53;;;;;;;11.90;8.87;;;2.40;99.90;;;;;;5034881;28;20464;-71
2022/03/06 02:37:22;;;;;;;10.93;8.37;;;2.50;99.90;;;;;;5035775;28;20471;-70
2022/03/06 02:39:50;;;;;;;12.60;8.73;;;2.40;99.90;;;;;;5037483;28;20464;-71
2022/03/06 02:42:25;;;;;;;12.07;8.53;;;2.40;99.90;;;;;;4999999;28;1090849;-70
2022/03/06 02:44:52;;;;;;;10.43;8.07;;;2.40;99.90;;;;;;5035027;28;20451;-70
2022/03/06 02:47:18;;;;;;;10.30;8.10;;;2.30;99.90;;;;;;5034583;28;20547;-70
2022/03/06 02:49:45;;;;;;;10.27;8.20;;;2.30;99.90;;;;;;5034909;28;20487;-70
2022/03/06 02:52:12;;;;;;;9.00;7.90;;;2.40;99.90;;;;;;5034377;28;20478;-70
2022/03/06 02:54:39;;;;;;;10.93;8.00;;;2.40;99.90;;;;;;5034118;28;20463;-70
2022/03/06 02:57:08;;;;;;;12.50;8.30;;;2.40;99.90;;;;;;5034565;28;20475;-70
2022/03/06 02:59:35;;;;;;;11.00;9.00;;;2.40;99.90;;;;;;5034197;28;20460;-70
2022/03/06 03:02:02;;;;;;;10.60;7.73;;;2.40;99.90;;;;;;5034400;28;20470;-69
2022/03/06 03:04:29;;;;;;;11.90;8.17;;;2.40;99.90;;;;;;5033995;28;20459;-70
2022/03/06 03:06:57;;;;;;;11.30;8.53;;;2.40;99.90;;;;;;5034160;28;20463;-69
2022/03/06 03:09:25;;;;;;;15.10;8.60;;;2.30;99.90;;;;;;5034294;28;20956;-70
2022/03/06 03:11:54;;;;;;;12.33;8.57;;;2.30;99.90;;;;;;5034150;28;20463;-68
2022/03/06 03:14:23;;;;;;;13.90;8.30;;;2.20;99.90;;;;;;5034106;28;20464;-69
2022/03/06 03:16:50;;;;;;;9.80;7.63;;;2.30;99.90;;;;;;5033786;28;20459;-69
2022/03/06 03:19:17;;;;;;;11.70;8.00;;;2.30;99.90;;;;;;5034127;28;20452;-70
2022/03/06 03:21:44;;;;;;;10.43;7.30;;;2.20;99.90;;;;;;5034040;28;20859;-70
2022/03/06 03:24:11;;;;;;;9.60;7.40;;;2.20;99.90;;;;;;5033994;28;20459;-70
2022/03/06 03:26:38;;;;;;;11.30;7.80;;;2.20;99.90;;;;;;5033958;28;20935;-70
2022/03/06 03:29:04;;;;;;;14.00;7.17;;;2.20;99.90;;;;;;5035856;28;20483;-70
2022/03/06 03:31:33;;;;;;;10.80;6.93;;;2.20;99.90;;;;;;5037605;28;20464;-69
2022/03/06 03:33:59;;;;;;;9.13;7.10;;;2.10;99.90;;;;;;5037839;28;20783;-70
2022/03/06 03:36:26;;;;;;;11.00;7.00;;;2.10;99.90;;;;;;5037151;28;20490;-70
2022/03/06 03:38:53;;;;;;;6.97;5.83;;;2.20;99.90;;;;;;5037643;28;20460;-70
2022/03/06 03:41:22;;;;;;;8.40;6.30;;;2.10;99.90;;;;;;5037325;28;20456;-70
2022/03/06 03:43:48;;;;;;;8.27;6.80;;;2.10;99.90;;;;;;5036761;28;20575;-70
2022/03/06 03:46:15;;;;;;;6.10;5.40;;;2.10;99.90;;;;;;5037075;28;20455;-70
2022/03/06 03:48:43;;;;;;;7.23;5.13;;;2.20;99.90;;;;;;5036972;28;20472;-70
2022/03/06 03:51:10;;;;;;;7.93;5.43;;;2.20;99.90;;;;;;5037258;28;20522;-70
2022/03/06 03:53:37;;;;;;;8.17;6.20;;;2.20;99.90;;;;;;5038103;28;20468;-70
2022/03/06 03:56:05;;;;;;;8.03;5.33;;;2.20;99.90;;;;;;5037038;28;20463;-70
2022/03/06 03:58:32;;;;;;;7.03;5.37;;;2.20;99.90;;;;;;5037997;28;20543;-69
2022/03/06 04:00:58;;;;;;;8.77;6.03;;;2.30;99.90;;;;;;5037302;28;20459;-69
2022/03/06 04:03:25;;;;;;;7.60;5.83;;;2.30;99.90;;;;;;5037840;28;20594;-69
2022/03/06 04:05:55;;;;;;;9.27;6.57;;;2.30;99.90;;;;;;5037250;28;20456;-69
2022/03/06 04:08:22;;;;;;;6.90;5.60;;;2.30;99.90;;;;;;5037367;28;20460;-69
2022/03/06 04:10:48;;;;;;;7.40;6.07;;;2.30;99.90;;;;;;5037057;28;20484;-69
2022/03/06 04:13:15;;;;;;;7.60;6.80;;;2.20;99.90;;;;;;5037180;28;20464;-69
2022/03/06 04:15:42;;;;;;;7.40;6.70;;;2.20;99.90;;;;;;5037912;28;20482;-69
2022/03/06 04:18:09;;;;;;;9.13;6.50;;;2.20;99.90;;;;;;5037493;28;20467;-70
2022/03/06 04:20:35;;;;;;;10.00;6.40;;;2.20;99.90;;;;;;5037633;28;20459;-69
2022/03/06 04:23:03;;;;;;;7.33;5.93;;;2.30;99.90;;;;;;5036725;28;20459;-70
2022/03/06 04:25:30;;;;;;;8.80;6.83;;;2.30;99.90;;;;;;5036966;28;20763;-69
2022/03/06 04:28:00;;;;;;;8.20;5.90;;;2.30;99.90;;;;;;5036897;28;20873;-69
2022/03/06 04:30:26;;;;;;;7.23;6.23;;;2.30;99.90;;;;;;5036828;28;20480;-70
2022/03/06 04:32:53;;;;;;;8.07;6.60;;;2.30;99.90;;;;;;5036410;28;20456;-70
2022/03/06 04:35:20;;;;;;;7.93;7.10;;;2.30;99.90;;;;;;5036431;28;20452;-70
2022/03/06 04:37:47;;;;;;;7.90;7.20;;;2.30;99.90;;;;;;5036203;28;20467;-69
2022/03/06 04:40:15;;;;;;;11.63;6.83;;;2.30;99.90;;;;;;5035139;28;20937;-68
2022/03/06 04:42:42;;;;;;;9.80;7.13;;;2.30;99.90;;;;;;5036180;28;20487;-69
2022/03/06 04:45:10;;;;;;;7.37;6.63;;;2.30;99.90;;;;;;5036065;28;20599;-69
2022/03/06 04:47:37;;;;;;;10.60;7.40;;;2.30;99.90;;;;;;5036219;28;20460;-69
2022/03/06 04:50:05;;;;;;;10.83;7.50;;;2.30;99.90;;;;;;5036342;28;20582;-69
2022/03/06 04:52:32;;;;;;;10.00;7.17;;;2.30;99.90;;;;;;5036043;28;20933;-69
2022/03/06 04:54:58;;;;;;;9.67;6.50;;;2.30;99.90;;;;;;5036305;28;20525;-69
2022/03/06 04:57:26;;;;;;;13.73;8.67;;;2.30;99.90;;;;;;5035831;28;20456;-69
2022/03/06 04:59:53;;;;;;;10.13;7.07;;;2.30;99.90;;;;;;5035600;28;20471;-69
2022/03/06 05:02:20;;;;;;;8.17;6.80;;;2.30;99.90;;;;;;5035703;28;20456;-68
2022/03/06 05:04:50;;;;;;;10.70;7.30;;;2.40;99.90;;;;;;5035920;28;20460;-69
2022/03/06 05:07:17;;;;;;;9.83;6.00;;;2.40;99.90;;;;;;5035443;28;20976;-70
2022/03/06 05:09:44;;;;;;;8.07;7.27;;;2.40;99.90;;;;;;5035726;28;20484;-69
2022/03/06 05:12:11;;;;;;;8.57;6.83;;;2.40;99.90;;;;;;5035611;28;20460;-70
2022/03/06 05:14:39;;;;;;;9.33;6.97;;;2.40;99.90;;;;;;5035648;28;20456;-70
2022/03/06 05:17:06;;;;;;;9.73;7.43;;;2.40;99.90;;;;;;5035807;28;20460;-70
2022/03/06 05:19:33;;;;;;;7.23;6.47;;;2.40;99.90;;;;;;5035983;28;20455;-69
2022/03/06 05:21:59;;;;;;;8.40;6.60;;;2.40;99.90;;;;;;5036172;28;20538;-69
2022/03/06 05:24:26;;;;;;;8.77;6.90;;;2.40;99.90;;;;;;5035942;28;20466;-70
2022/03/06 05:26:53;;;;;;;8.37;7.30;;;2.50;99.90;;;;;;5036483;28;20464;-69
2022/03/06 05:29:19;;;;;;;10.67;7.87;;;2.40;99.90;;;;;;5035891;28;20460;-70
2022/03/06 05:31:48;;;;;;;10.13;7.17;;;2.40;99.90;;;;;;5035975;28;20913;-69
2022/03/06 05:34:15;;;;;;;9.00;7.10;;;2.40;99.90;;;;;;5035956;28;20551;-69
2022/03/06 05:36:41;;;;;;;11.73;7.70;;;2.40;99.90;;;;;;5035224;28;20487;-69
2022/03/06 05:39:08;;;;;;;9.40;6.93;;;2.40;99.90;;;;;;5035166;28;20573;-69
2022/03/06 05:41:35;;;;;;;9.90;7.63;;;2.50;99.90;;;;;;5035230;28;20483;-69
2022/03/06 05:44:02;;;;;;;9.73;7.37;;;2.50;99.90;;;;;;5034974;28;20524;-69
2022/03/06 05:46:29;;;;;;;8.60;7.50;;;2.50;99.90;;;;;;5034582;28;20474;-70
2022/03/06 05:48:57;;;;;;;8.93;7.00;;;2.50;99.90;;;;;;5034928;28;20474;-70
2022/03/06 05:51:23;;;;;;;9.67;8.00;;;2.50;99.90;;;;;;5035242;28;20807;-70
2022/03/06 05:53:50;;;;;;;9.00;7.33;;;2.50;99.90;;;;;;5035211;28;20487;-70
2022/03/06 05:56:17;;;;;;;9.17;7.27;;;2.50;99.90;;;;;;5034964;28;20463;-70
2022/03/06 05:58:43;;;;;;;9.80;8.80;;;2.50;99.90;;;;;;5034914;28;20452;-70
2022/03/06 06:01:10;;;;;;;10.50;8.83;;;2.50;99.90;;;;;;5034929;28;20456;-70
2022/03/06 06:03:37;;;;;;;9.90;8.20;;;2.50;99.90;;;;;;5035068;28;20488;-70
2022/03/06 06:06:05;;;;;;;9.67;7.80;;;2.50;99.90;;;;;;5034837;28;20471;-70
2022/03/06 06:08:32;;;;;;;8.80;7.83;;;2.50;99.90;;;;;;5035295;28;20460;-70
2022/03/06 06:10:58;;;;;;;8.83;7.73;;;2.50;99.90;;;;;;5034887;28;20487;-70
2022/03/06 06:13:25;;;;;;;12.47;8.13;;;2.50;99.90;;;;;;5036288;28;20529;-70
2022/03/06 06:15:51;;;;;;;9.93;8.70;;;2.50;99.90;;;;;;5039023;28;20495;-70
2022/03/06 06:18:18;;;;;;;11.10;7.73;;;2.50;99.90;;;;;;5039449;28;20456;-70
2022/03/06 06:20:45;;;;;;;9.63;8.60;;;2.60;99.90;;;;;;5035201;28;20448;-70
2022/03/06 06:23:13;;;;;;;13.47;9.23;;;2.50;99.90;;;;;;5034724;28;20522;-70
2022/03/06 06:25:43;;;;;;;10.40;9.30;;;2.60;99.90;;;;;;5034728;28;20525;-70
2022/03/06 06:28:09;;;;;;;9.90;8.07;;;2.60;99.90;;;;;;5034696;28;20456;-70
2022/03/06 06:30:36;;;;;;;10.00;9.00;;;2.50;99.90;;;;;;5034492;28;20518;-70
2022/03/06 06:33:03;;;;;;;10.47;9.37;;;2.60;99.90;;;;;;5034800;28;20526;-70
2022/03/06 06:35:29;;;;;;;11.63;10.00;;;2.60;99.90;;;;;;5034666;28;20460;-70
2022/03/06 06:37:56;;;;;;;11.80;9.70;;;2.50;99.90;;;;;;5034644;28;20464;-70
2022/03/06 06:40:24;;;;;;;10.27;9.20;;;2.50;99.90;;;;;;5034203;28;20456;-71
2022/03/06 06:42:51;;;;;;;11.23;9.30;;;2.60;99.90;;;;;;5034315;28;20816;-70
2022/03/06 06:45:18;;;;;;;10.23;8.80;;;2.60;99.90;;;;;;5034659;28;20460;-70
2022/03/06 06:47:44;;;;;;;10.97;9.60;;;2.60;99.90;;;;;;5034364;28;20543;-70
2022/03/06 06:50:11;;;;;;;9.97;8.50;;;2.60;99.90;;;;;;5034499;28;20495;-70
2022/03/06 06:52:38;;;;;;;10.97;9.27;;;2.60;99.90;;;;;;5034269;28;20460;-70
2022/03/06 06:55:06;;;;;;;9.63;8.73;;;2.60;99.90;;;;;;5034257;28;20467;-70
2022/03/06 06:57:34;;;;;;;11.40;9.40;;;2.70;99.90;;;;;;5034007;28;20467;-70
2022/03/06 07:00:02;;;;;;;11.10;9.40;;;2.80;99.90;;;;;;5034246;28;20468;-70
2022/03/06 07:02:29;;;;;;;10.83;8.67;;;2.80;99.90;;;;;;5034504;28;20759;-70
2022/03/06 07:04:56;;;;;;;12.37;10.60;;;2.80;99.90;;;;;;5037736;28;20475;-70
2022/03/06 07:07:23;;;;;;;11.70;10.20;;;2.80;99.90;;;;;;5038189;28;20777;-70
2022/03/06 07:09:50;;;;;;;10.77;9.63;;;2.80;99.90;;;;;;5037591;28;20571;-70
2022/03/06 07:12:17;;;;;;;12.50;9.53;;;2.80;99.90;;;;;;5038111;28;20463;-70
2022/03/06 07:14:45;;;;;;;36.37;22.00;;;2.90;99.90;;;;;;5038078;28;20460;-69
2022/03/06 07:17:12;;;;;;;13.33;10.37;;;2.80;99.90;;;;;;5038232;28;20475;-70
2022/03/06 07:19:38;;;;;;;11.87;9.83;;;2.90;99.90;;;;;;5037935;28;20460;-69
2022/03/06 07:22:05;;;;;;;10.03;9.00;;;2.90;99.90;;;;;;5037669;28;20462;-70
2022/03/06 07:24:32;;;;;;;11.30;9.70;;;2.90;99.90;;;;;;5037764;28;20455;-69
2022/03/06 07:26:59;;;;;;;12.00;9.37;;;3.00;99.90;;;;;;5037995;28;20456;-72
2022/03/06 07:29:25;;;;;;;9.40;8.43;;;3.00;99.90;;;;;;5038346;28;20463;-70
2022/03/06 07:31:53;;;;;;;11.00;9.80;;;3.00;99.90;;;;;;5037545;28;20553;-70
2022/03/06 07:34:20;;;;;;;12.57;10.40;;;3.00;99.90;;;;;;5037591;28;20460;-70
2022/03/06 07:36:47;;;;;;;11.23;10.10;;;3.00;99.90;;;;;;5038079;28;20456;-70
2022/03/06 07:39:15;;;;;;;10.20;9.10;;;2.90;99.90;;;;;;5037564;28;20517;-70
2022/03/06 07:41:41;;;;;;;11.27;10.07;;;2.90;99.90;;;;;;5037221;28;20491;-70
2022/03/06 07:44:08;;;;;;;11.73;10.10;;;2.90;99.90;;;;;;5037082;28;20480;-69
2022/03/06 07:46:35;;;;;;;11.07;9.20;;;2.90;99.90;;;;;;5037653;28;20562;-70
2022/03/06 07:49:03;;;;;;;11.10;9.10;;;2.90;99.90;;;;;;5038213;28;20537;-70
2022/03/06 07:51:29;;;;;;;11.30;10.10;;;2.90;99.90;;;;;;5037797;28;20480;-70
2022/03/06 07:53:56;;;;;;;11.57;9.80;;;3.00;99.90;;;;;;5037843;28;20463;-70
2022/03/06 07:56:23;;;;;;;12.57;10.07;;;3.00;99.90;;;;;;5037643;28;20463;-69
2022/03/06 07:58:49;;;;;;;11.47;9.80;;;3.00;99.90;;;;;;5037396;28;20460;-70
2022/03/06 08:01:16;;;;;;;11.20;10.10;;;3.00;99.90;;;;;;5037514;28;20467;-70
2022/03/06 08:03:45;;;;;;;11.97;9.70;;;3.00;99.90;;;;;;5037336;28;20452;-70
2022/03/06 08:06:13;;;;;;;17.80;13.63;;;3.00;99.90;;;;;;5038885;28;20521;-69
2022/03/06 08:08:43;;;;;;;11.20;10.03;;;3.00;99.90;;;;;;5038088;28;20482;-70
2022/03/06 08:11:09;;;;;;;10.43;9.20;;;3.00;99.90;;;;;;5037114;28;20480;-70
2022/03/06 08:13:36;;;;;;;12.90;9.40;;;3.00;99.90;;;;;;5037460;28;20896;-71
2022/03/06 08:16:03;;;;;;;33.83;20.10;;;3.00;99.90;;;;;;5036841;28;20947;-69
2022/03/06 08:18:29;;;;;;;12.60;10.43;;;3.00;99.90;;;;;;5037427;28;20460;-70
2022/03/06 08:20:56;;;;;;;12.20;9.93;;;3.00;99.90;;;;;;5037539;28;20549;-70
2022/03/06 08:23:24;;;;;;;11.83;10.63;;;3.00;99.90;;;;;;5038055;28;20472;-69
2022/03/06 08:25:51;;;;;;;11.30;10.10;;;3.00;99.90;;;;;;5038509;28;20463;-70
2022/03/06 08:28:17;;;;;;;14.47;9.37;;;3.00;99.90;;;;;;5038534;28;20456;-70
2022/03/06 08:30:44;;;;;;;11.30;9.30;;;3.00;99.90;;;;;;5038730;28;20476;-70
2022/03/06 08:33:11;;;;;;;15.47;9.87;;;3.00;99.90;;;;;;5039648;28;20814;-71
2022/03/06 08:35:37;;;;;;;12.10;9.37;;;3.00;99.90;;;;;;5039696;28;20823;-71
2022/03/06 08:38:04;;;;;;;9.63;8.47;;;3.00;99.90;;;;;;5040212;28;20467;-71
2022/03/06 08:40:32;;;;;;;11.03;7.77;;;2.90;99.90;;;;;;5040637;28;20471;-71
2022/03/06 08:42:59;;;;;;;8.73;7.70;;;3.00;99.90;;;;;;5039024;28;20490;-71
2022/03/06 08:45:26;;;;;;;9.13;7.30;;;3.00;99.90;;;;;;5037431;28;20475;-71
2022/03/06 08:47:53;;;;;;;9.40;8.07;;;3.00;99.90;;;;;;5036827;28;20474;-70
2022/03/06 08:50:19;;;;;;;7.73;6.93;;;3.00;99.90;;;;;;5036449;28;20460;-70
2022/03/06 08:52:46;;;;;;;8.63;7.33;;;3.00;99.90;;;;;;5036239;28;20538;-69
2022/03/06 08:55:13;;;;;;;8.07;7.27;;;3.00;99.90;;;;;;5036412;28;20452;-71
2022/03/06 08:57:41;;;;;;;8.03;7.23;;;3.10;99.90;;;;;;5036645;28;20467;-70
2022/03/06 09:00:09;;;;;;;8.80;6.90;;;3.10;99.90;;;;;;5035854;28;20531;-70
2022/03/06 09:02:36;;;;;;;8.93;7.17;;;3.10;99.90;;;;;;5035921;28;20471;-70
2022/03/06 09:05:02;;;;;;;7.30;6.50;;;3.10;99.90;;;;;;5036171;28;20456;-71
2022/03/06 09:07:29;;;;;;;8.30;7.43;;;3.10;99.90;;;;;;5036045;28;20780;-69
2022/03/06 09:09:56;;;;;;;6.93;6.33;;;3.10;99.90;;;;;;5035918;28;20799;-71
2022/03/06 09:12:26;;;;;;;7.70;6.90;;;3.10;99.90;;;;;;5035789;28;20484;-69
2022/03/06 09:14:54;;;;;;;7.90;6.77;;;3.10;99.90;;;;;;5035817;28;20440;-70
2022/03/06 09:17:21;;;;;;;8.90;6.20;;;3.20;99.90;;;;;;5035976;28;20474;-70
2022/03/06 09:19:47;;;;;;;6.83;6.13;;;3.20;99.90;;;;;;5035858;28;20761;-70
2022/03/06 09:22:14;;;;;;;6.93;5.87;;;3.20;99.90;;;;;;5035580;28;20752;-70
2022/03/06 09:24:41;;;;;;;6.83;6.13;;;3.30;99.90;;;;;;5035818;28;20459;-69
2022/03/06 09:27:07;;;;;;;7.27;6.30;;;3.30;99.90;;;;;;5035140;28;20464;-69
2022/03/06 09:29:34;;;;;;;7.97;6.40;;;3.40;99.90;;;;;;5035759;28;20475;-70
2022/03/06 09:32:03;;;;;;;8.13;6.27;;;3.40;99.90;;;;;;5035584;28;20483;-70
2022/03/06 09:34:29;;;;;;;7.03;6.33;;;3.40;99.90;;;;;;5035272;28;20514;-69
2022/03/06 09:36:56;;;;;;;7.73;6.70;;;3.50;99.90;;;;;;5035281;28;20459;-70
2022/03/06 09:39:23;;;;;;;7.27;6.57;;;3.60;99.90;;;;;;5035321;28;20467;-70
2022/03/06 09:41:50;;;;;;;7.77;6.73;;;3.60;99.90;;;;;;5035564;28;20460;-70
2022/03/06 09:44:17;;;;;;;9.87;7.30;;;3.60;99.90;;;;;;5034940;28;20520;-69
2022/03/06 09:46:44;;;;;;;6.73;6.13;;;3.60;99.90;;;;;;5035501;28;20471;-70
2022/03/06 09:49:12;;;;;;;9.10;6.20;;;3.60;99.90;;;;;;5037813;28;20456;-70
2022/03/06 09:51:41;;;;;;;7.33;6.17;;;3.60;99.90;;;;;;5038962;28;20781;-70
2022/03/06 09:54:08;;;;;;;6.47;5.87;;;3.50;99.90;;;;;;5039113;28;20455;-69
2022/03/06 09:56:36;;;;;;;9.37;6.13;;;3.50;99.90;;;;;;5035628;28;20455;-70
2022/03/06 09:59:03;;;;;;;7.17;5.80;;;3.60;99.90;;;;;;5035595;28;20455;-70
2022/03/06 10:01:30;;;;;;;7.67;6.07;;;3.60;99.90;;;;;;5035162;28;20452;-70
2022/03/06 10:03:57;;;;;;;8.60;6.43;;;3.50;99.90;;;;;;5035220;28;20456;-69
2022/03/06 10:06:25;;;;;;;6.80;6.10;;;3.50;99.90;;;;;;5034991;28;20843;-70
2022/03/06 10:09:04;;;;;;;7.17;6.47;;;3.60;99.90;;;;;;5034556;28;20467;-69
2022/03/06 10:11:32;;;;;;;9.30;6.57;;;3.60;99.90;;;;;;5034790;28;20559;-70
2022/03/06 10:13:59;;;;;;;8.33;6.23;;;3.50;99.90;;;;;;5034756;28;20464;-71
2022/03/06 10:16:25;;;;;;;7.00;6.30;;;3.50;99.90;;;;;;5035349;28;20464;-70
2022/03/06 10:18:54;;;;;;;7.47;6.30;;;3.60;99.90;;;;;;5034882;28;20929;-69
2022/03/06 10:21:24;;;;;;;7.17;6.03;;;3.80;99.90;;;;;;5034771;28;20456;-69
2022/03/06 10:23:55;;;;;;;7.43;6.60;;;3.80;99.90;;;;;;5034201;28;20467;-69
2022/03/06 10:26:23;;;;;;;11.77;5.63;;;3.90;99.90;;;;;;5034412;28;20908;-70
2022/03/06 10:28:56;;;;;;;7.33;6.27;;;3.90;99.90;;;;;;5034446;28;20959;-70
2022/03/06 10:31:26;;;;;;;8.37;6.47;;;3.90;99.90;;;;;;5034873;28;20549;-70
2022/03/06 10:34:07;;;;;;;6.90;6.20;;;4.00;99.90;;;;;;5034329;28;20543;-70
2022/03/06 10:36:39;;;;;;;8.37;7.00;;;4.00;99.90;;;;;;5034083;28;20464;-69
2022/03/06 10:39:13;;;;;;;9.17;7.03;;;3.90;99.90;;;;;;5036743;28;20444;-69
2022/03/06 10:41:42;;;;;;;7.80;7.07;;;3.90;99.90;;;;;;5038150;28;20935;-69
2022/03/06 10:44:10;;;;;;;7.23;6.50;;;3.90;99.90;;;;;;5037948;28;20483;-70
2022/03/06 10:46:38;;;;;;;7.30;6.60;;;3.90;99.90;;;;;;5038284;28;20460;-69
2022/03/06 10:49:12;;;;;;;7.13;6.53;;;4.00;99.90;;;;;;5038321;28;20455;-70
2022/03/06 10:51:40;;;;;;;7.63;6.83;;;4.00;99.90;;;;;;5038144;28;20554;-70
2022/03/06 10:54:07;;;;;;;10.13;7.20;;;4.00;99.90;;;;;;5038234;28;20484;-70
2022/03/06 10:56:35;;;;;;;7.70;6.90;;;4.00;99.90;;;;;;5038145;28;20506;-69
2022/03/06 10:59:05;;;;;;;9.30;6.70;;;4.00;99.90;;;;;;5038063;28;20495;-69
2022/03/06 11:01:33;;;;;;;8.13;7.40;;;4.10;99.90;;;;;;5038122;28;20479;-68
2022/03/06 11:04:02;;;;;;;8.20;7.40;;;4.20;99.90;;;;;;5038097;28;20541;-70
2022/03/06 11:06:30;;;;;;;10.73;9.47;;;4.20;99.90;;;;;;5037740;28;20467;-70
2022/03/06 11:08:57;;;;;;;9.03;7.13;;;4.30;99.90;;;;;;5038101;28;20570;-70
2022/03/06 11:11:24;;;;;;;10.53;7.57;;;4.30;99.90;;;;;;5037824;28;20487;-70
2022/03/06 11:13:55;;;;;;;7.77;7.17;;;4.30;99.90;;;;;;5037731;28;20471;-69
2022/03/06 11:16:22;;;;;;;8.10;7.10;;;4.30;99.90;;;;;;5038369;28;20451;-70
2022/03/06 11:18:49;;;;;;;9.77;7.57;;;4.40;99.90;;;;;;5037807;28;20459;-69
2022/03/06 11:21:17;;;;;;;10.23;7.93;;;4.50;99.90;;;;;;5037652;28;20824;-69
2022/03/06 11:23:47;;;;;;;8.33;7.20;;;4.50;99.90;;;;;;5037989;28;20459;-70
2022/03/06 11:26:56;;;;;;;6.87;6.17;;;4.60;99.90;;;;;;5037408;28;20485;-70
2022/03/06 11:29:49;;;;;;;8.90;8.00;;;4.60;99.90;;;;;;5008583;28;20770;-71
2022/03/06 11:32:24;;;;;;;7.07;6.37;;;4.70;99.90;;;;;;5037277;28;20494;-69
2022/03/06 11:34:53;;;;;;;10.10;8.00;;;4.70;99.60;;;;;;5037516;28;20827;-70
2022/03/06 11:37:20;;;;;;;9.53;8.00;;;4.70;98.30;;;;;;5037627;28;20551;-70
2022/03/06 11:39:49;;;;;;;7.83;7.20;;;4.70;97.80;;;;;;5038402;28;20468;-69
2022/03/06 11:42:52;;;;;;;6.57;5.97;;;4.60;97.00;;;;;;5038673;28;20495;-71
2022/03/06 11:45:47;;;;;;;8.37;6.70;;;4.70;96.50;;;;;;5037363;28;20922;-70
2022/03/06 11:48:25;;;;;;;9.17;6.63;;;4.80;96.30;;;;;;5037317;28;20460;-70
2022/03/06 11:51:17;;;;;;;8.00;6.80;;;4.80;96.60;;;;;;5036783;28;20466;-69
2022/03/06 11:53:50;;;;;;;6.40;5.90;;;4.90;96.20;;;;;;5037434;28;20470;-70
2022/03/06 11:56:46;;;;;;;8.03;6.10;;;5.00;94.80;;;;;;5038300;28;20726;-69
2022/03/06 11:59:38;;;;;;;7.07;6.37;;;4.90;94.30;;;;;;5037162;28;20518;-69
2022/03/06 12:02:14;;;;;;;6.90;6.30;;;4.80;94.40;;;;;;5034381;28;20452;-70
2022/03/06 12:04:45;;;;;;;7.20;6.47;;;4.80;94.10;;;;;;5037327;28;20780;-71
2022/03/06 12:07:13;;;;;;;5.57;5.07;;;4.70;93.50;;;;;;5037148;28;20452;-70
2022/03/06 12:09:41;;;;;;;5.70;5.20;;;4.70;93.50;;;;;;5036565;28;20467;-69
2022/03/06 12:12:10;;;;;;;6.90;5.40;;;4.70;93.40;;;;;;5036723;28;20497;-70
2022/03/06 12:14:38;;;;;;;6.10;4.67;;;4.70;93.60;;;;;;5036564;28;20916;-70
2022/03/06 12:17:21;;;;;;;7.97;5.90;;;4.70;94.20;;;;;;5037073;28;20460;-70
2022/03/06 12:20:26;;;;;;;4.60;3.83;;;4.70;94.60;;;;;;5036630;28;20940;-69
2022/03/06 12:23:06;;;;;;;3.80;3.50;;;4.70;95.00;;;;;;5036794;28;20517;-70
2022/03/06 12:25:35;;;;;;;3.93;3.63;;;4.70;95.50;;;;;;5036926;28;20445;-70
2022/03/06 12:28:31;;;;;;;4.23;3.80;;;4.80;95.50;;;;;;5036290;28;20466;-70
2022/03/06 12:30:58;;;;;;;4.00;3.60;;;4.80;95.90;;;;;;5036515;28;20451;-70
2022/03/06 12:33:32;;;;;;;8.37;4.40;;;4.90;95.60;;;;;;5036387;28;20479;-70
2022/03/06 12:36:21;;;;;;;3.63;3.27;;;5.00;95.30;;;;;;5036464;28;20451;-69
2022/03/06 12:38:53;;;;;;;3.90;2.70;;;4.80;95.30;;;;;;5036758;28;20482;-69
2022/03/06 12:41:20;;;;;;;8.43;3.70;;;4.70;96.10;;;;;;5036936;28;20467;-73
2022/03/06 12:43:50;;;;;;;5.33;3.30;;;4.70;96.70;;;;;;5036670;28;20480;-69
2022/03/06 12:46:19;;;;;;;2.90;2.40;;;4.60;97.00;;;;;;5036542;28;20502;-69
2022/03/06 12:48:50;;;;;;;4.60;3.20;;;4.50;97.10;;;;;;5036815;28;20460;-69
2022/03/06 12:51:38;;;;;;;3.00;2.70;;;4.50;97.50;;;;;;5037047;28;20753;-69
2022/03/06 12:54:16;;;;;;;2.90;2.57;;;4.60;97.70;;;;;;5036927;28;20444;-69
2022/03/06 12:56:42;;;;;;;3.50;3.00;;;4.50;97.20;;;;;;5036589;28;20513;-69